Time;durP1;ratioP1;P1;durP2;ratioP2;P2;SDS_P1;SDS_P2;PMS_P1;PMS_P2;Temp;Humidity;BMP_temperature;BMP_pressure;BME280_temperature;BME280_humidity;BME280_pressure;Samples;Min_cycle;Max_cycle;Signal;HPM_P1;HPM_P2
2023/12/11 00:01:07;;;;;;;56.00;11.48;;;10.30;99.90;;;;;;5011563;28;20038;-77
2023/12/11 00:03:32;;;;;;;54.15;11.13;;;10.20;99.90;;;;;;5013152;28;20075;-78
2023/12/11 00:05:58;;;;;;;58.03;11.60;;;10.20;99.90;;;;;;5012294;28;20040;-78
2023/12/11 00:08:24;;;;;;;60.65;12.75;;;10.20;99.90;;;;;;5012833;28;20152;-78
2023/12/11 00:10:49;;;;;;;52.90;12.43;;;10.20;99.90;;;;;;5010243;28;20026;-78
2023/12/11 00:13:15;;;;;;;53.10;10.50;;;10.20;99.90;;;;;;5012598;28;20034;-77
2023/12/11 00:15:40;;;;;;;62.50;11.13;;;10.20;99.90;;;;;;5012028;28;20037;-77
2023/12/11 00:18:06;;;;;;;59.60;11.40;;;10.20;99.90;;;;;;4995001;28;20050;-78
2023/12/11 00:20:32;;;;;;;61.67;12.15;;;10.30;99.90;;;;;;4993597;28;20052;-78
2023/12/11 00:22:58;;;;;;;62.28;11.65;;;10.30;99.90;;;;;;5013061;28;20038;-78
2023/12/11 00:25:24;;;;;;;49.10;10.40;;;10.40;99.90;;;;;;5013268;28;20034;-78
2023/12/11 00:27:49;;;;;;;47.17;10.57;;;10.50;99.90;;;;;;5011980;28;20072;-78
2023/12/11 00:30:15;;;;;;;57.75;11.32;;;10.50;99.90;;;;;;5013204;28;20037;-77
2023/12/11 00:32:41;;;;;;;54.67;11.23;;;10.60;99.90;;;;;;5012696;28;20022;-79
2023/12/11 00:35:07;;;;;;;54.22;10.32;;;10.60;99.90;;;;;;5012829;28;20540;-78
2023/12/11 00:37:32;;;;;;;52.50;11.07;;;10.60;99.90;;;;;;5012806;28;20113;-77
2023/12/11 00:39:58;;;;;;;59.45;11.60;;;10.70;99.90;;;;;;5012641;28;20046;-77
2023/12/11 00:42:23;;;;;;;48.95;10.80;;;10.70;99.90;;;;;;5012180;28;20034;-76
2023/12/11 00:44:49;;;;;;;60.58;11.65;;;10.70;99.90;;;;;;5013032;28;20426;-77
2023/12/11 00:47:14;;;;;;;56.95;11.75;;;10.80;99.90;;;;;;5011427;28;20049;-78
2023/12/11 00:49:40;;;;;;;52.45;10.77;;;10.80;99.90;;;;;;5008835;28;20041;-77
2023/12/11 00:52:05;;;;;;;58.65;12.48;;;10.80;99.90;;;;;;4995481;28;20091;-77
2023/12/11 00:54:31;;;;;;;66.07;11.63;;;10.90;99.90;;;;;;5012572;28;20119;-78
2023/12/11 00:56:57;;;;;;;59.28;11.48;;;10.90;99.90;;;;;;4995444;28;20034;-78
2023/12/11 00:59:22;;;;;;;45.25;9.50;;;10.90;99.90;;;;;;5011706;28;20033;-77
2023/12/11 01:01:51;;;;;;;47.42;11.70;;;10.90;99.90;;;;;;5012258;28;20157;-77
2023/12/11 01:04:16;;;;;;;51.22;10.45;;;10.90;99.90;;;;;;5017461;28;20038;-77
2023/12/11 01:06:42;;;;;;;57.08;12.70;;;10.90;99.90;;;;;;5015022;28;20033;-77
2023/12/11 01:09:08;;;;;;;47.35;10.52;;;10.90;99.90;;;;;;5016632;28;20117;-77
2023/12/11 01:11:33;;;;;;;51.83;11.23;;;10.90;99.90;;;;;;5012308;28;20057;-77
2023/12/11 01:13:59;;;;;;;54.80;10.80;;;10.90;99.90;;;;;;4999566;28;20036;-77
2023/12/11 01:16:24;;;;;;;57.67;11.35;;;10.90;99.90;;;;;;5016773;28;20022;-77
2023/12/11 01:18:51;;;;;;;58.13;12.20;;;10.90;99.90;;;;;;4996833;28;20050;-77
2023/12/11 01:21:16;;;;;;;56.20;12.68;;;10.90;99.90;;;;;;5012058;28;20080;-78
2023/12/11 01:23:42;;;;;;;59.80;13.02;;;10.90;99.90;;;;;;5016326;28;20109;-77
2023/12/11 01:26:08;;;;;;;61.80;12.55;;;10.90;99.90;;;;;;4999124;28;20022;-77
2023/12/11 01:28:34;;;;;;;55.45;11.05;;;11.00;99.90;;;;;;5014829;28;20034;-78
2023/12/11 01:30:59;;;;;;;63.00;13.35;;;11.00;99.90;;;;;;5015410;28;20434;-78
2023/12/11 01:33:25;;;;;;;63.35;12.27;;;10.90;99.90;;;;;;5014639;28;20088;-77
2023/12/11 01:35:51;;;;;;;58.42;13.55;;;10.90;99.90;;;;;;5016256;28;20034;-78
2023/12/11 01:38:16;;;;;;;57.80;11.93;;;10.90;99.90;;;;;;5016314;28;20092;-78
2023/12/11 01:40:42;;;;;;;67.28;13.00;;;10.90;99.90;;;;;;5016579;28;20037;-78
2023/12/11 01:43:33;;;;;;;62.50;13.25;;;10.90;99.90;;;;;;5014055;28;20030;-77
2023/12/11 01:46:10;;;;;;;63.50;13.07;;;10.90;99.90;;;;;;5012428;28;20038;-77
2023/12/11 01:48:36;;;;;;;57.53;11.05;;;10.90;99.90;;;;;;5016218;28;20034;-76
2023/12/11 01:51:02;;;;;;;55.60;11.52;;;10.90;99.90;;;;;;5015068;28;20038;-79
2023/12/11 01:53:29;;;;;;;59.53;11.35;;;10.80;99.90;;;;;;5016010;28;20092;-77
2023/12/11 01:55:55;;;;;;;50.53;9.18;;;10.80;99.90;;;;;;5015851;28;20037;-79
2023/12/11 01:58:21;;;;;;;53.40;11.45;;;10.80;99.90;;;;;;5014957;28;20034;-78
2023/12/11 02:00:47;;;;;;;53.53;11.57;;;10.80;99.90;;;;;;5014587;28;20048;-78
2023/12/11 02:03:12;;;;;;;53.45;11.00;;;10.80;99.90;;;;;;5015847;28;20033;-77
2023/12/11 02:05:40;;;;;;;57.33;11.45;;;10.80;99.90;;;;;;5016256;28;20096;-78
2023/12/11 02:08:06;;;;;;;46.22;8.98;;;10.80;99.90;;;;;;5015268;28;20022;-77
2023/12/11 02:10:31;;;;;;;54.58;10.55;;;10.80;99.90;;;;;;5015814;28;20041;-77
2023/12/11 02:12:57;;;;;;;47.35;10.07;;;10.90;99.90;;;;;;5013772;28;20030;-77
2023/12/11 02:15:43;;;;;;;56.60;12.18;;;10.80;99.90;;;;;;5015587;28;20033;-77
2023/12/11 02:18:10;;;;;;;48.72;9.43;;;10.90;99.90;;;;;;5014723;28;20060;-77
2023/12/11 02:20:37;;;;;;;53.40;11.05;;;10.90;99.90;;;;;;5015670;28;20033;-78
2023/12/11 02:23:07;;;;;;;58.85;10.80;;;10.90;99.90;;;;;;5014420;28;20402;-77
2023/12/11 02:25:35;;;;;;;47.75;10.25;;;10.90;99.90;;;;;;4996188;28;20430;-78
2023/12/11 02:28:01;;;;;;;54.22;10.20;;;10.90;99.90;;;;;;5012893;28;20124;-77
2023/12/11 02:30:31;;;;;;;48.75;9.93;;;10.90;99.90;;;;;;5015715;28;20022;-77
2023/12/11 02:32:56;;;;;;;48.42;9.85;;;10.90;99.90;;;;;;4997283;28;20038;-79
2023/12/11 02:35:22;;;;;;;50.08;9.85;;;10.90;99.90;;;;;;5014668;28;20156;-77
2023/12/11 02:37:47;;;;;;;45.83;9.23;;;10.90;99.90;;;;;;5014118;28;20137;-78
2023/12/11 02:40:13;;;;;;;41.70;8.85;;;10.90;99.90;;;;;;5015200;28;20100;-78
2023/12/11 02:42:48;;;;;;;40.55;7.97;;;11.00;99.90;;;;;;5014973;28;20070;-78
2023/12/11 02:45:15;;;;;;;45.78;9.50;;;11.00;99.90;;;;;;4996138;28;20026;-78
2023/12/11 02:47:40;;;;;;;46.03;10.02;;;11.00;99.90;;;;;;5013803;28;20030;-78
2023/12/11 02:50:06;;;;;;;45.25;9.70;;;11.10;99.90;;;;;;5014985;28;20358;-78
2023/12/11 02:52:32;;;;;;;46.42;8.98;;;11.10;99.90;;;;;;5014290;28;20153;-77
2023/12/11 02:54:57;;;;;;;46.33;9.55;;;11.10;99.90;;;;;;5014530;28;20080;-77
2023/12/11 02:57:23;;;;;;;48.53;9.70;;;11.10;99.90;;;;;;5013460;28;20083;-78
2023/12/11 02:59:48;;;;;;;46.08;9.25;;;11.20;99.90;;;;;;5011361;28;20654;-77
2023/12/11 03:02:14;;;;;;;48.08;9.27;;;11.20;99.90;;;;;;5014362;28;20374;-77
2023/12/11 03:04:40;;;;;;;50.95;10.25;;;11.20;99.90;;;;;;5012832;28;20029;-77
2023/12/11 03:07:05;;;;;;;48.58;9.13;;;11.20;99.90;;;;;;4997868;28;20064;-77
2023/12/11 03:09:31;;;;;;;45.88;8.52;;;11.20;99.90;;;;;;5015032;28;20029;-78
2023/12/11 03:11:56;;;;;;;42.00;8.57;;;11.20;99.90;;;;;;5014085;28;20030;-77
2023/12/11 03:14:22;;;;;;;52.17;10.05;;;11.20;99.90;;;;;;4994826;28;20030;-78
2023/12/11 03:16:48;;;;;;;46.15;9.10;;;11.20;99.90;;;;;;5014602;28;20113;-78
2023/12/11 03:19:14;;;;;;;48.13;10.52;;;11.20;99.90;;;;;;5014446;28;20072;-78
2023/12/11 03:21:39;;;;;;;38.08;8.77;;;11.20;99.90;;;;;;5014536;28;20077;-78
2023/12/11 03:24:05;;;;;;;46.97;9.45;;;11.30;99.90;;;;;;5012937;28;20041;-78
2023/12/11 03:26:30;;;;;;;49.40;9.60;;;11.30;99.90;;;;;;5014081;28;20041;-78
2023/12/11 03:28:56;;;;;;;44.85;9.48;;;11.30;99.90;;;;;;5014427;28;20523;-78
2023/12/11 03:31:21;;;;;;;48.42;9.60;;;11.30;99.90;;;;;;5012992;28;20469;-78
2023/12/11 03:33:47;;;;;;;48.47;8.68;;;11.20;99.90;;;;;;5014550;28;20026;-77
2023/12/11 03:36:12;;;;;;;48.55;10.73;;;11.20;99.90;;;;;;5013702;28;20119;-78
2023/12/11 03:38:38;;;;;;;52.38;11.05;;;11.20;99.90;;;;;;5012738;28;20098;-77
2023/12/11 03:41:04;;;;;;;53.92;10.60;;;11.30;99.90;;;;;;5013911;28;20041;-78
2023/12/11 03:43:29;;;;;;;57.90;11.95;;;11.20;99.90;;;;;;5013827;28;20026;-78
2023/12/11 03:45:55;;;;;;;56.28;12.07;;;11.20;99.90;;;;;;5012896;28;20060;-78
2023/12/11 03:48:21;;;;;;;51.00;11.20;;;11.20;99.90;;;;;;4996287;28;20438;-78
2023/12/11 03:50:47;;;;;;;47.90;10.30;;;11.10;99.90;;;;;;5013828;28;20065;-78
2023/12/11 03:53:12;;;;;;;60.63;11.25;;;11.00;99.90;;;;;;5013458;28;20026;-77
2023/12/11 03:55:38;;;;;;;58.35;12.90;;;10.90;99.90;;;;;;5011656;28;20433;-77
2023/12/11 03:58:03;;;;;;;56.75;11.48;;;10.80;99.90;;;;;;5011549;28;20041;-77
2023/12/11 04:00:29;;;;;;;56.20;11.20;;;10.70;99.90;;;;;;5014150;28;20042;-77
2023/12/11 04:02:54;;;;;;;58.20;11.88;;;10.70;99.90;;;;;;5013892;28;20030;-77
2023/12/11 04:05:20;;;;;;;56.83;11.68;;;10.70;99.90;;;;;;5013064;28;20046;-77
2023/12/11 04:07:45;;;;;;;58.00;11.93;;;10.60;99.90;;;;;;5013780;28;20067;-76
2023/12/11 04:10:11;;;;;;;57.67;11.80;;;10.60;99.90;;;;;;5012217;28;20393;-75
2023/12/11 04:12:38;;;;;;;51.47;10.02;;;10.60;99.90;;;;;;4995097;28;20389;-79
2023/12/11 04:15:04;;;;;;;61.33;10.77;;;10.60;99.90;;;;;;4993759;28;20482;-76
2023/12/11 04:17:30;;;;;;;51.45;10.63;;;10.60;99.90;;;;;;4992299;28;20128;-76
2023/12/11 04:19:57;;;;;;;51.97;10.52;;;10.60;99.90;;;;;;4993875;28;20039;-76
2023/12/11 04:22:22;;;;;;;52.38;9.77;;;10.60;99.90;;;;;;4993661;28;20105;-77
2023/12/11 04:24:48;;;;;;;64.25;10.68;;;10.60;99.90;;;;;;4992468;28;20489;-77
2023/12/11 04:27:14;;;;;;;47.15;9.55;;;10.60;99.90;;;;;;4993572;28;20038;-77
2023/12/11 04:29:40;;;;;;;45.80;10.60;;;10.60;99.90;;;;;;4993871;28;20026;-77
2023/12/11 04:32:05;;;;;;;45.08;8.60;;;10.60;99.90;;;;;;4992488;28;20366;-77
2023/12/11 04:34:31;;;;;;;43.80;9.05;;;10.60;99.90;;;;;;4992006;28;20381;-77
2023/12/11 04:36:56;;;;;;;38.80;8.77;;;10.70;99.90;;;;;;4996417;28;20053;-78
2023/12/11 04:39:22;;;;;;;41.47;7.85;;;10.70;99.90;;;;;;4997713;28;20080;-78
2023/12/11 04:41:48;;;;;;;38.53;7.28;;;10.70;99.90;;;;;;4997397;28;20046;-78
2023/12/11 04:44:13;;;;;;;45.80;8.45;;;10.70;99.90;;;;;;4997894;28;20026;-77
2023/12/11 04:46:39;;;;;;;39.97;7.47;;;10.70;99.90;;;;;;4995437;28;20033;-79
2023/12/11 04:49:05;;;;;;;33.92;7.32;;;10.80;99.90;;;;;;4978982;28;20061;-78
2023/12/11 04:51:30;;;;;;;35.38;7.75;;;10.80;99.90;;;;;;4997855;28;20123;-78
2023/12/11 04:53:58;;;;;;;36.97;7.93;;;10.80;99.90;;;;;;4995667;28;20080;-78
2023/12/11 04:56:24;;;;;;;31.67;6.65;;;10.80;99.90;;;;;;4993793;28;20050;-78
2023/12/11 04:58:50;;;;;;;34.85;6.57;;;10.80;99.90;;;;;;4995162;28;20035;-78
2023/12/11 05:01:15;;;;;;;41.42;7.53;;;10.80;99.90;;;;;;4995957;28;20038;-78
2023/12/11 05:03:41;;;;;;;31.67;6.82;;;10.80;99.90;;;;;;4997315;28;20034;-78
2023/12/11 05:06:07;;;;;;;31.52;6.10;;;10.80;99.90;;;;;;4996584;28;20031;-77
2023/12/11 05:08:32;;;;;;;34.95;7.00;;;10.80;99.90;;;;;;4997219;28;20125;-78
2023/12/11 05:10:58;;;;;;;33.13;6.85;;;10.80;99.90;;;;;;4988060;28;20153;-77
2023/12/11 05:13:23;;;;;;;36.55;6.82;;;10.70;99.90;;;;;;4994272;28;20401;-77
2023/12/11 05:15:49;;;;;;;30.92;6.18;;;10.80;99.90;;;;;;4994723;28;20382;-78
2023/12/11 05:18:14;;;;;;;33.80;7.05;;;10.70;99.90;;;;;;4994645;28;20076;-77
2023/12/11 05:20:40;;;;;;;42.38;7.53;;;10.70;99.90;;;;;;4997003;28;20054;-78
2023/12/11 05:23:06;;;;;;;41.70;8.60;;;10.70;99.90;;;;;;4996351;28;20392;-78
2023/12/11 05:25:31;;;;;;;44.72;8.57;;;10.70;99.90;;;;;;4993125;28;20486;-78
2023/12/11 05:27:57;;;;;;;41.10;8.50;;;10.70;99.90;;;;;;4993968;28;20061;-77
2023/12/11 05:30:22;;;;;;;39.55;8.80;;;10.70;99.90;;;;;;4993697;28;20041;-79
2023/12/11 05:32:48;;;;;;;34.70;6.85;;;10.70;99.90;;;;;;4995208;28;20038;-77
2023/12/11 05:35:13;;;;;;;38.10;8.02;;;10.70;99.90;;;;;;4985987;28;20478;-78
2023/12/11 05:37:39;;;;;;;38.97;7.60;;;10.60;99.90;;;;;;4997189;28;20126;-79
2023/12/11 05:40:05;;;;;;;42.90;7.53;;;10.60;99.90;;;;;;4994814;28;20092;-77
2023/12/11 05:42:31;;;;;;;36.67;7.25;;;10.60;99.90;;;;;;4996914;28;20034;-77
2023/12/11 05:44:56;;;;;;;38.70;7.70;;;10.50;99.90;;;;;;4995232;28;20121;-77
2023/12/11 05:47:22;;;;;;;40.08;9.15;;;10.40;99.90;;;;;;4995858;28;20080;-76
2023/12/11 05:49:47;;;;;;;37.22;7.35;;;10.50;99.90;;;;;;4996591;28;20030;-77
2023/12/11 05:52:13;;;;;;;32.65;7.25;;;10.40;99.90;;;;;;4996030;28;20053;-76
2023/12/11 05:54:38;;;;;;;35.33;7.70;;;10.40;99.90;;;;;;4994979;28;20033;-77
2023/12/11 05:57:04;;;;;;;41.13;7.72;;;10.40;99.90;;;;;;4994844;28;20035;-77
2023/12/11 05:59:30;;;;;;;36.95;7.90;;;10.40;99.90;;;;;;4996279;28;20034;-77
2023/12/11 06:01:55;;;;;;;30.58;6.60;;;10.50;99.90;;;;;;4994357;28;20049;-75
2023/12/11 06:04:21;;;;;;;36.95;6.85;;;10.50;99.90;;;;;;4993327;28;20039;-77
2023/12/11 06:06:47;;;;;;;32.50;6.85;;;10.50;99.90;;;;;;4994643;28;20026;-76
2023/12/11 06:09:13;;;;;;;38.90;7.30;;;10.40;99.90;;;;;;4993509;28;20031;-77
2023/12/11 06:11:39;;;;;;;43.95;8.77;;;10.40;99.90;;;;;;4994808;28;20034;-77
2023/12/11 06:14:06;;;;;;;43.45;8.07;;;10.40;99.90;;;;;;4996187;28;20031;-76
2023/12/11 06:16:32;;;;;;;35.70;8.70;;;10.40;99.90;;;;;;4989016;28;20033;-76
2023/12/11 06:18:57;;;;;;;37.22;7.32;;;10.40;99.90;;;;;;5012091;28;20053;-76
2023/12/11 06:21:24;;;;;;;39.25;8.07;;;10.40;99.90;;;;;;5014544;28;20046;-77
2023/12/11 06:23:49;;;;;;;28.55;6.43;;;10.40;99.90;;;;;;5015407;28;20029;-77
2023/12/11 06:26:30;;;;;;;36.63;7.25;;;10.40;99.90;;;;;;5014637;28;20034;-77
2023/12/11 06:29:00;;;;;;;38.15;7.15;;;10.40;99.90;;;;;;5014334;28;20109;-78
2023/12/11 06:31:27;;;;;;;30.52;6.97;;;10.40;99.90;;;;;;5015390;28;20022;-79
2023/12/11 06:33:53;;;;;;;32.72;6.13;;;10.30;99.90;;;;;;5015550;28;20065;-75
2023/12/11 06:36:19;;;;;;;16.60;4.88;;;10.40;99.90;;;;;;5014407;28;20558;-77
2023/12/11 06:38:45;;;;;;;19.15;4.35;;;10.40;99.90;;;;;;5015034;28;20037;-75
2023/12/11 06:41:10;;;;;;;54.75;26.95;;;10.40;99.90;;;;;;5015245;28;20038;-79
2023/12/11 06:43:36;;;;;;;30.13;8.40;;;10.40;99.90;;;;;;5013933;28;20033;-78
2023/12/11 06:46:02;;;;;;;24.90;5.78;;;10.30;99.90;;;;;;4997456;28;20037;-77
2023/12/11 06:48:29;;;;;;;28.00;5.90;;;10.40;99.90;;;;;;5013112;28;20029;-79
2023/12/11 06:50:55;;;;;;;26.75;5.53;;;10.30;99.90;;;;;;5003579;28;20034;-77
2023/12/11 06:53:20;;;;;;;31.77;7.20;;;10.30;99.90;;;;;;4993555;28;20126;-79
2023/12/11 06:55:46;;;;;;;38.15;7.50;;;10.30;99.90;;;;;;5000999;28;20096;-77
2023/12/11 06:58:11;;;;;;;36.50;7.55;;;10.40;99.90;;;;;;4995789;28;20047;-77
2023/12/11 07:00:37;;;;;;;27.42;6.03;;;10.40;99.90;;;;;;5011105;28;20042;-78
2023/12/11 07:03:03;;;;;;;32.88;6.93;;;10.40;99.90;;;;;;5014239;28;20029;-78
2023/12/11 07:05:28;;;;;;;62.38;24.95;;;10.50;99.90;;;;;;5013331;28;20032;-79
2023/12/11 07:07:54;;;;;;;30.60;8.38;;;10.50;99.90;;;;;;5014751;28;20038;-78
2023/12/11 07:10:19;;;;;;;29.63;7.57;;;10.50;99.90;;;;;;5013292;28;20133;-79
2023/12/11 07:12:45;;;;;;;30.88;7.60;;;10.50;99.90;;;;;;5014415;28;20037;-78
2023/12/11 07:15:11;;;;;;;41.70;8.32;;;10.50;99.90;;;;;;5013882;28;20017;-78
2023/12/11 07:17:37;;;;;;;35.75;8.15;;;10.50;99.90;;;;;;5012725;28;20470;-79
2023/12/11 07:20:04;;;;;;;34.92;7.22;;;10.50;99.90;;;;;;5009396;28;20076;-78
2023/12/11 07:22:33;;;;;;;37.25;8.02;;;10.50;99.90;;;;;;5007504;28;20021;-76
2023/12/11 07:24:58;;;;;;;42.72;12.27;;;10.50;99.90;;;;;;5014603;28;20164;-76
2023/12/11 07:27:24;;;;;;;35.75;8.88;;;10.60;99.90;;;;;;4995593;28;20492;-79
2023/12/11 07:29:49;;;;;;;35.80;7.60;;;10.60;99.90;;;;;;5012943;28;20037;-77
2023/12/11 07:32:15;;;;;;;38.55;8.90;;;10.60;99.90;;;;;;5014482;28;20022;-78
2023/12/11 07:34:42;;;;;;;38.35;8.73;;;10.60;99.90;;;;;;5012831;28;20036;-78
2023/12/11 07:37:08;;;;;;;40.83;8.48;;;10.60;99.90;;;;;;5012624;28;20029;-78
2023/12/11 07:39:34;;;;;;;42.17;9.05;;;10.60;99.90;;;;;;4995290;28;20030;-78
2023/12/11 07:42:00;;;;;;;36.55;8.27;;;10.60;99.90;;;;;;5012056;28;20129;-78
2023/12/11 07:44:25;;;;;;;38.47;7.72;;;10.60;99.90;;;;;;5010573;28;20441;-78
2023/12/11 07:46:51;;;;;;;37.88;7.97;;;10.60;99.90;;;;;;5013426;28;20057;-78
2023/12/11 07:49:16;;;;;;;36.47;8.15;;;10.60;99.90;;;;;;4999994;28;20041;-78
2023/12/11 07:51:43;;;;;;;33.17;6.15;;;10.60;99.90;;;;;;5011957;28;20056;-78
2023/12/11 07:54:09;;;;;;;35.58;8.13;;;10.60;99.90;;;;;;5013668;28;20028;-78
2023/12/11 07:56:37;;;;;;;34.28;7.25;;;10.60;99.90;;;;;;5012666;28;20492;-78
2023/12/11 07:59:02;;;;;;;33.55;6.72;;;10.60;99.90;;;;;;5010681;28;20029;-78
2023/12/11 08:01:33;;;;;;;33.22;7.05;;;10.60;99.90;;;;;;5004684;28;20050;-78
2023/12/11 08:03:59;;;;;;;31.47;6.57;;;10.60;99.90;;;;;;5013289;28;20041;-78
2023/12/11 08:06:25;;;;;;;28.98;5.95;;;10.70;99.90;;;;;;4992183;28;20313;-77
2023/12/11 08:08:51;;;;;;;33.88;6.90;;;10.70;99.90;;;;;;5008983;28;20026;-78
2023/12/11 08:11:21;;;;;;;36.10;6.90;;;10.70;99.90;;;;;;4994009;28;20041;-78
2023/12/11 08:13:48;;;;;;;32.50;6.32;;;10.70;99.90;;;;;;5013319;28;20454;-78
2023/12/11 08:16:14;;;;;;;30.33;6.32;;;10.70;99.90;;;;;;5011982;28;20048;-79
2023/12/11 08:18:41;;;;;;;31.33;6.05;;;10.80;99.90;;;;;;5009402;28;20477;-78
2023/12/11 08:21:08;;;;;;;38.38;6.78;;;10.70;99.90;;;;;;5010526;28;20136;-77
2023/12/11 08:23:34;;;;;;;39.70;12.27;;;10.80;99.90;;;;;;5008544;28;20421;-78
2023/12/11 08:26:00;;;;;;;32.30;6.97;;;10.80;99.90;;;;;;5011771;28;20026;-78
2023/12/11 08:28:25;;;;;;;30.50;6.13;;;10.80;99.90;;;;;;5012100;28;20062;-78
2023/12/11 08:30:51;;;;;;;33.60;7.20;;;10.80;99.90;;;;;;5013047;28;20060;-78
2023/12/11 08:33:16;;;;;;;40.90;7.55;;;10.80;99.90;;;;;;5013470;28;20141;-78
2023/12/11 08:35:42;;;;;;;36.47;7.68;;;10.70;99.90;;;;;;5010535;28;20045;-78
2023/12/11 08:38:07;;;;;;;38.90;7.50;;;10.70;99.90;;;;;;5013009;28;20030;-78
2023/12/11 08:40:33;;;;;;;37.95;8.00;;;10.70;99.90;;;;;;5013238;28;20044;-78
2023/12/11 08:42:59;;;;;;;45.00;8.48;;;10.60;99.90;;;;;;5011398;28;20045;-79
2023/12/11 08:45:24;;;;;;;37.72;7.75;;;10.60;99.90;;;;;;5009922;28;20035;-78
2023/12/11 08:47:50;;;;;;;42.83;8.32;;;10.60;99.90;;;;;;5012566;28;20022;-78
2023/12/11 08:50:16;;;;;;;47.78;8.40;;;10.60;99.90;;;;;;4994766;28;20108;-79
2023/12/11 08:52:43;;;;;;;41.97;8.55;;;10.60;99.90;;;;;;4993696;28;20457;-78
2023/12/11 08:55:08;;;;;;;37.45;8.18;;;10.60;99.90;;;;;;5012275;28;20033;-78
2023/12/11 08:57:35;;;;;;;39.63;8.02;;;10.60;99.90;;;;;;5012425;28;20041;-77
2023/12/11 09:00:01;;;;;;;36.60;7.43;;;10.60;99.90;;;;;;4994377;28;20053;-78
2023/12/11 09:02:27;;;;;;;38.55;7.90;;;10.70;99.90;;;;;;5009414;28;20033;-78
2023/12/11 09:04:53;;;;;;;35.65;7.47;;;10.70;99.90;;;;;;5012344;28;20030;-78
2023/12/11 09:07:18;;;;;;;35.10;6.80;;;10.70;99.90;;;;;;5009165;28;20026;-78
2023/12/11 09:09:44;;;;;;;36.88;7.35;;;10.70;99.90;;;;;;5011805;28;20057;-77
2023/12/11 09:12:09;;;;;;;34.75;7.25;;;10.70;99.90;;;;;;5004744;28;20053;-77
2023/12/11 09:14:35;;;;;;;39.53;8.52;;;10.60;99.90;;;;;;5012024;28;20088;-78
2023/12/11 09:17:00;;;;;;;34.70;7.68;;;10.60;99.90;;;;;;5012371;28;20034;-78
2023/12/11 09:19:28;;;;;;;35.92;7.35;;;10.60;99.90;;;;;;5011603;28;20351;-78
2023/12/11 09:21:53;;;;;;;36.33;7.47;;;10.60;99.90;;;;;;5012948;28;20065;-77
2023/12/11 09:24:19;;;;;;;35.03;6.13;;;10.70;99.90;;;;;;5016174;28;20073;-77
2023/12/11 09:26:45;;;;;;;39.63;6.63;;;10.70;99.90;;;;;;5016383;28;20034;-78
2023/12/11 09:29:10;;;;;;;35.15;6.40;;;10.70;99.90;;;;;;5015945;28;20034;-78
2023/12/11 09:31:38;;;;;;;30.00;5.00;;;10.70;99.90;;;;;;5015806;28;20080;-78
2023/12/11 09:34:03;;;;;;;23.98;5.10;;;10.70;99.90;;;;;;5014475;28;20049;-78
2023/12/11 09:36:29;;;;;;;24.00;4.10;;;10.70;99.90;;;;;;5015174;28;20073;-78
2023/12/11 09:38:55;;;;;;;21.52;4.38;;;10.80;99.90;;;;;;5012817;28;20088;-77
2023/12/11 09:41:21;;;;;;;23.33;4.63;;;10.80;99.90;;;;;;5014942;28;20069;-77
2023/12/11 09:43:48;;;;;;;20.85;3.70;;;10.80;99.90;;;;;;5011632;28;20041;-78
2023/12/11 09:46:17;;;;;;;17.98;3.42;;;10.80;99.90;;;;;;5009369;28;21369;-78
2023/12/11 09:48:43;;;;;;;16.90;3.63;;;10.80;99.90;;;;;;4995372;28;20018;-78
2023/12/11 09:51:09;;;;;;;20.05;2.80;;;10.80;99.90;;;;;;4997480;28;20026;-78
2023/12/11 09:53:36;;;;;;;20.55;3.38;;;10.90;99.90;;;;;;5014036;28;20434;-77
2023/12/11 09:56:03;;;;;;;20.85;3.88;;;10.90;99.90;;;;;;5008262;28;20057;-79
2023/12/11 09:58:28;;;;;;;16.65;3.53;;;10.90;99.90;;;;;;5012577;28;20021;-77
2023/12/11 10:01:00;;;;;;;18.73;3.30;;;10.90;99.90;;;;;;5012970;28;20555;-78
2023/12/11 10:03:29;;;;;;;;;;;11.00;99.90;;;;;;5013964;28;20694;-78
2023/12/11 10:06:02;;;;;;;23.10;3.30;;;11.00;99.90;;;;;;5012309;28;19917;-77
2023/12/11 10:08:27;;;;;;;14.13;3.00;;;11.10;99.90;;;;;;5013396;28;20049;-78
2023/12/11 10:11:11;;;;;;;17.95;3.65;;;11.20;99.90;;;;;;5012801;28;20408;-77
2023/12/11 10:13:38;;;;;;;16.33;3.28;;;11.30;99.90;;;;;;5013640;28;20025;-78
2023/12/11 10:16:05;;;;;;;17.75;3.20;;;11.30;99.90;;;;;;4997235;28;20022;-78
2023/12/11 10:18:31;;;;;;;15.20;2.97;;;11.40;99.90;;;;;;5014267;28;20133;-77
2023/12/11 10:20:58;;;;;;;33.67;16.55;;;11.40;99.90;;;;;;5013936;28;20038;-77
2023/12/11 10:23:24;;;;;;;24.17;9.02;;;11.40;99.90;;;;;;5014713;28;20030;-77
2023/12/11 10:26:03;;;;;;;19.52;3.60;;;11.30;99.90;;;;;;5015257;28;20033;-78
2023/12/11 10:28:30;;;;;;;15.95;3.78;;;11.30;99.90;;;;;;5015174;28;20112;-77
2023/12/11 10:30:59;;;;;;;15.02;3.90;;;11.30;99.90;;;;;;5013903;28;20436;-78
2023/12/11 10:33:26;;;;;;;22.40;4.07;;;11.30;99.90;;;;;;4996618;28;20120;-78
2023/12/11 10:36:06;;;;;;;20.85;3.47;;;11.30;99.90;;;;;;4996938;28;20134;-77
2023/12/11 10:38:32;;;;;;;22.75;4.47;;;11.20;99.90;;;;;;4997449;28;20030;-77
2023/12/11 10:40:57;;;;;;;24.25;4.57;;;11.10;99.90;;;;;;5013329;28;20503;-77
2023/12/11 10:43:23;;;;;;;23.67;4.68;;;11.10;99.90;;;;;;5014487;28;20030;-77
2023/12/11 10:45:49;;;;;;;19.08;4.10;;;11.00;99.90;;;;;;5013229;28;20186;-77
2023/12/11 10:48:14;;;;;;;17.92;3.40;;;11.00;99.90;;;;;;4996384;28;20030;-77
2023/12/11 10:50:41;;;;;;;25.48;4.38;;;11.00;99.90;;;;;;5015418;28;20025;-78
2023/12/11 10:53:08;;;;;;;22.85;4.40;;;11.10;99.90;;;;;;5014570;28;20033;-77
2023/12/11 10:55:36;;;;;;;25.98;4.97;;;11.10;99.90;;;;;;4995622;28;20114;-77
2023/12/11 10:58:02;;;;;;;21.00;3.55;;;11.10;99.90;;;;;;5014972;28;20076;-77
2023/12/11 11:00:30;;;;;;;19.60;4.38;;;11.00;99.90;;;;;;5013963;28;20045;-77
2023/12/11 11:02:57;;;;;;;19.48;3.33;;;10.90;99.90;;;;;;5013934;28;20022;-77
2023/12/11 11:05:25;;;;;;;17.10;2.97;;;10.90;99.90;;;;;;5013327;28;20362;-77
2023/12/11 11:08:09;;;;;;;20.55;3.45;;;10.90;99.90;;;;;;5014392;28;20057;-77
2023/12/11 11:10:43;;;;;;;19.20;3.53;;;10.90;99.90;;;;;;4995550;28;20026;-77
2023/12/11 11:13:14;;;;;;;18.40;3.20;;;10.90;99.90;;;;;;5012443;28;20038;-78
2023/12/11 11:15:40;;;;;;;21.65;3.72;;;11.00;99.90;;;;;;5012250;28;20022;-77
2023/12/11 11:18:07;;;;;;;13.27;2.80;;;11.00;99.90;;;;;;5014238;28;20053;-77
2023/12/11 11:20:38;;;;;;;19.45;3.05;;;11.00;99.90;;;;;;5013969;28;20073;-77
2023/12/11 11:23:18;;;;;;;15.40;3.40;;;11.00;99.90;;;;;;5010419;28;20045;-77
2023/12/11 11:25:54;;;;;;;23.58;3.70;;;11.00;99.90;;;;;;5011084;28;20032;-78
2023/12/11 11:28:37;;;;;;;18.70;2.97;;;11.10;99.90;;;;;;5014226;28;20048;-77
2023/12/11 11:31:04;;;;;;;17.73;3.05;;;11.00;99.90;;;;;;5013705;28;20023;-76
2023/12/11 11:33:44;;;;;;;15.15;3.10;;;11.00;99.90;;;;;;5012201;28;20022;-78
2023/12/11 11:36:10;;;;;;;19.73;3.60;;;10.90;99.90;;;;;;5014040;28;20026;-78
2023/12/11 11:39:04;;;;;;;17.08;3.13;;;10.90;99.90;;;;;;4995161;28;20030;-77
2023/12/11 11:41:30;;;;;;;17.55;3.55;;;10.80;99.90;;;;;;5011101;28;20397;-76
2023/12/11 11:44:00;;;;;;;19.77;3.70;;;10.80;99.90;;;;;;5013733;28;20037;-77
2023/12/11 11:46:46;;;;;;;22.60;3.83;;;10.80;99.90;;;;;;5012956;28;20041;-77
2023/12/11 11:49:24;;;;;;;24.00;3.78;;;10.90;99.90;;;;;;5012737;28;20058;-77
2023/12/11 11:51:50;;;;;;;20.23;3.60;;;11.00;99.90;;;;;;5014145;28;20026;-77
2023/12/11 11:54:15;;;;;;;17.90;3.45;;;11.00;99.90;;;;;;5013596;28;20033;-77
2023/12/11 11:56:45;;;;;;;19.45;3.58;;;11.10;99.90;;;;;;4996156;28;20038;-77
2023/12/11 11:59:11;;;;;;;17.63;3.50;;;11.10;99.90;;;;;;4991961;28;20036;-78
2023/12/11 12:01:54;;;;;;;21.30;3.38;;;11.10;99.90;;;;;;5012145;28;20045;-79
2023/12/11 12:04:34;;;;;;;31.52;14.80;;;11.10;99.90;;;;;;5013633;28;20092;-79
2023/12/11 12:07:05;;;;;;;20.10;4.65;;;11.00;99.90;;;;;;5012894;28;20026;-78
2023/12/11 12:09:32;;;;;;;21.05;3.78;;;11.00;99.90;;;;;;5013068;28;20125;-80
2023/12/11 12:11:58;;;;;;;18.92;3.95;;;11.00;99.90;;;;;;4996425;28;20069;-78
2023/12/11 12:14:27;;;;;;;17.48;4.05;;;11.00;99.90;;;;;;5013476;28;20069;-78
2023/12/11 12:16:54;;;;;;;19.52;3.40;;;11.10;99.90;;;;;;5012332;28;20034;-78
2023/12/11 12:19:33;;;;;;;20.77;3.67;;;11.10;99.90;;;;;;4995768;28;20029;-77
2023/12/11 12:22:01;;;;;;;20.30;4.20;;;11.10;99.90;;;;;;5010786;28;20034;-77
2023/12/11 12:24:27;;;;;;;20.77;3.75;;;11.00;99.90;;;;;;5013454;28;20045;-78
2023/12/11 12:27:01;;;;;;;20.75;3.72;;;11.00;99.90;;;;;;5013908;28;20381;-78
2023/12/11 12:29:29;;;;;;;18.98;4.00;;;11.00;99.90;;;;;;5012952;28;20041;-78
2023/12/11 12:31:57;;;;;;;19.23;4.18;;;11.00;99.90;;;;;;5011868;28;20116;-77